Time;durP1;ratioP1;P1;durP2;ratioP2;P2;SDS_P1;SDS_P2;PMS_P1;PMS_P2;Temp;Humidity;BMP_temperature;BMP_pressure;BME280_temperature;BME280_humidity;BME280_pressure;Samples;Min_cycle;Max_cycle;Signal;HPM_P1;HPM_P2
2023/05/24 00:01:28;;;;;;;;;18.00;15.50;;;;;23.20;44.02;100466.68;110225;1265;21488;-39
2023/05/24 00:03:57;;;;;;;;;15.00;13.00;;;;;23.18;44.01;100465.75;110207;1265;23599;-39
2023/05/24 00:06:26;;;;;;;;;16.00;16.00;;;;;23.19;43.97;100466.17;110190;1265;19368;-39
2023/05/24 00:08:53;;;;;;;;;18.00;16.00;;;;;23.17;43.87;100462.45;110244;1251;22277;-40
2023/05/24 00:11:21;;;;;;;;;18.00;15.00;;;;;23.17;43.65;100461.86;110238;1265;20206;-39
2023/05/24 00:13:48;;;;;;;;;17.00;17.00;;;;;23.18;43.49;100460.05;110269;1265;19867;-39
2023/05/24 00:16:16;;;;;;;;;19.00;18.00;;;;;23.17;43.68;100454.48;110244;1265;21892;-39
2023/05/24 00:18:45;;;;;;;;;21.00;20.00;;;;;23.16;43.57;100452.34;110254;1265;19237;-39
2023/05/24 00:21:13;;;;;;;;;17.50;17.00;;;;;23.14;43.38;100457.97;110240;1257;21225;-39
2023/05/24 00:23:41;;;;;;;;;18.00;18.00;;;;;23.12;43.14;100454.95;110217;1257;21647;-39
2023/05/24 00:26:08;;;;;;;;;23.00;22.00;;;;;23.12;43.16;100455.71;110187;1265;19912;-39
2023/05/24 00:28:36;;;;;;;;;22.00;19.50;;;;;23.10;43.20;100456.67;110233;1265;19476;-39
2023/05/24 00:31:03;;;;;;;;;20.00;17.00;;;;;23.09;43.18;100457.21;110239;1250;22410;-40
2023/05/24 00:33:31;;;;;;;;;19.50;18.50;;;;;23.09;43.37;100454.98;110219;1260;20389;-39
2023/05/24 00:35:58;;;;;;;;;19.33;19.00;;;;;23.08;43.43;100452.92;110231;1251;19489;-38
2023/05/24 00:38:25;;;;;;;;;20.00;19.00;;;;;23.08;43.54;100451.38;110190;1251;23067;-39
2023/05/24 00:40:55;;;;;;;;;25.00;23.00;;;;;23.06;43.27;100453.91;110235;1251;20039;-41
2023/05/24 00:43:22;;;;;;;;;22.67;22.67;;;;;23.04;43.27;100448.55;110153;1265;20859;-41
2023/05/24 00:45:50;;;;;;;;;23.00;21.00;;;;;23.01;43.21;100447.31;110016;1265;129345;-39
2023/05/24 00:48:18;;;;;;;;;22.50;21.50;;;;;22.98;43.23;100448.42;110188;1265;19215;-38
2023/05/24 00:50:45;;;;;;;;;24.00;22.00;;;;;22.97;43.26;100445.40;110180;1265;22988;-38
2023/05/24 00:53:13;;;;;;;;;22.00;21.00;;;;;23.00;43.11;100443.90;110181;1251;21462;-38
2023/05/24 00:55:40;;;;;;;;;22.00;21.00;;;;;23.01;42.94;100440.55;110122;1265;19213;-38
2023/05/24 00:58:07;;;;;;;;;25.00;22.00;;;;;23.02;42.72;100441.53;110229;1265;23652;-39
2023/05/24 01:00:35;;;;;;;;;19.00;18.50;;;;;23.03;42.66;100445.05;110251;1251;21728;-39
2023/05/24 01:03:02;;;;;;;;;21.00;18.00;;;;;23.02;42.61;100443.58;110261;1250;23532;-38
2023/05/24 01:05:30;;;;;;;;;19.67;19.00;;;;;22.99;42.19;100445.02;110223;1265;19470;-41
2023/05/24 01:07:57;;;;;;;;;21.00;21.00;;;;;23.00;42.17;100449.29;110292;1251;21836;-39
2023/05/24 01:10:25;;;;;;;;;19.00;18.00;;;;;23.00;41.98;100454.56;110191;1265;20073;-39
2023/05/24 01:12:52;;;;;;;;;19.00;15.00;;;;;23.00;41.83;100461.94;110241;1251;20860;-40
2023/05/24 01:15:20;;;;;;;;;15.33;15.00;;;;;23.00;41.89;100468.51;110257;1265;21802;-39
2023/05/24 01:17:47;;;;;;;;;18.00;15.00;;;;;23.02;41.83;100472.18;110243;1260;19126;-39
2023/05/24 01:20:15;;;;;;;;;22.00;18.00;;;;;23.02;41.69;100468.90;110168;1257;19344;-39
2023/05/24 01:22:43;;;;;;;;;15.00;14.00;;;;;23.02;41.94;100469.69;110264;1249;23075;-38
2023/05/24 01:25:10;;;;;;;;;22.00;18.00;;;;;23.03;41.66;100475.67;110219;1251;20129;-40
2023/05/24 01:27:38;;;;;;;;;17.00;16.00;;;;;23.03;41.87;100472.30;110180;1265;23463;-40
2023/05/24 01:30:05;;;;;;;;;17.33;15.67;;;;;23.03;41.97;100470.33;110144;1250;21574;-40
2023/05/24 01:32:33;;;;;;;;;14.00;13.00;;;;;23.04;41.89;100476.23;110142;1260;20065;-40
2023/05/24 01:35:00;;;;;;;;;17.67;17.33;;;;;23.04;42.11;100473.66;110211;1265;20376;-40
2023/05/24 01:37:28;;;;;;;;;18.00;16.00;;;;;23.04;42.24;100468.98;110184;1251;21490;-39
2023/05/24 01:39:55;;;;;;;;;16.00;16.00;;;;;23.03;42.44;100471.64;110234;1265;19302;-39
2023/05/24 01:42:23;;;;;;;;;16.00;16.00;;;;;23.04;42.61;100475.46;110203;1251;20903;-38
2023/05/24 01:44:51;;;;;;;;;19.67;19.00;;;;;23.04;42.70;100478.54;110238;1265;23434;-39
2023/05/24 01:47:18;;;;;;;;;16.00;16.00;;;;;23.03;42.61;100470.51;110055;1251;20019;-38
2023/05/24 01:49:45;;;;;;;;;17.50;16.00;;;;;23.04;42.70;100481.14;110174;1249;20872;-39
2023/05/24 01:52:13;;;;;;;;;23.50;19.00;;;;;23.04;43.01;100489.93;110198;1251;21564;-39
2023/05/24 01:54:40;;;;;;;;;19.33;18.67;;;;;23.03;43.00;100485.34;110200;1265;19945;-39
2023/05/24 01:57:08;;;;;;;;;16.00;16.00;;;;;23.02;43.19;100484.29;110240;1265;21157;-39
2023/05/24 01:59:35;;;;;;;;;17.00;15.00;;;;;23.03;43.29;100492.59;110179;1249;22943;-39
2023/05/24 02:02:03;;;;;;;;;19.00;18.50;;;;;23.03;43.55;100491.45;110201;1250;21647;-39
2023/05/24 02:04:30;;;;;;;;;18.00;18.00;;;;;23.03;43.48;100491.86;110236;1250;19598;-39
2023/05/24 02:06:57;;;;;;;;;18.00;16.00;;;;;23.02;43.48;100492.45;110258;1250;21791;-39
2023/05/24 02:09:25;;;;;;;;;20.00;20.00;;;;;23.03;43.77;100493.13;110222;1265;19232;-40
2023/05/24 02:11:52;;;;;;;;;20.00;19.00;;;;;23.03;43.77;100491.86;110200;1266;23096;-40
2023/05/24 02:14:20;;;;;;;;;26.00;21.50;;;;;23.03;43.82;100499.30;110189;1265;23490;-39
2023/05/24 02:16:49;;;;;;;;;16.00;16.00;;;;;23.03;43.89;100500.40;110189;1250;23610;-40
2023/05/24 02:19:17;;;;;;;;;21.50;19.50;;;;;23.03;44.10;100504.19;110185;1265;22283;-40
2023/05/24 02:21:44;;;;;;;;;19.00;18.50;;;;;23.03;44.27;100503.05;110203;1265;20099;-40
2023/05/24 02:24:12;;;;;;;;;18.00;18.00;;;;;23.02;44.28;100503.92;110228;1257;19469;-40
2023/05/24 02:26:39;;;;;;;;;18.00;18.00;;;;;23.02;44.50;100506.20;110201;1265;19671;-40
2023/05/24 02:29:06;;;;;;;;;20.00;18.50;;;;;23.02;44.46;100512.42;110223;1250;21506;-38
2023/05/24 02:31:34;;;;;;;;;22.00;20.00;;;;;23.02;44.84;100512.46;110256;1265;20012;-39
2023/05/24 02:34:01;;;;;;;;;21.00;19.00;;;;;23.02;44.93;100516.63;110269;1265;21120;-38
2023/05/24 02:36:31;;;;;;;;;28.00;22.50;;;;;23.01;44.82;100516.33;110235;1251;22858;-38
2023/05/24 02:38:58;;;;;;;;;24.00;19.00;;;;;23.02;45.05;100513.18;110242;1265;22929;-38
2023/05/24 02:41:26;;;;;;;;;22.00;19.00;;;;;23.00;45.00;100513.33;110194;1265;19902;-39
2023/05/24 02:43:53;;;;;;;;;23.00;21.00;;;;;23.00;45.27;100512.45;110201;1251;23115;-39
2023/05/24 02:46:21;;;;;;;;;22.00;21.00;;;;;22.99;45.38;100513.14;110174;1265;20161;-38
2023/05/24 02:48:49;;;;;;;;;25.00;22.00;;;;;22.99;45.56;100508.39;110229;1250;21883;-38
2023/05/24 02:51:17;;;;;;;;;25.00;21.00;;;;;22.99;45.58;100511.84;110221;1257;21593;-38
2023/05/24 02:53:44;;;;;;;;;21.00;19.00;;;;;22.99;45.71;100515.33;110199;1265;19922;-39
2023/05/24 02:56:12;;;;;;;;;23.50;21.00;;;;;22.99;45.82;100515.89;110191;1265;21873;-39
2023/05/24 02:58:40;;;;;;;;;19.67;19.00;;;;;23.00;45.93;100515.79;110210;1265;20274;-39
2023/05/24 03:01:08;;;;;;;;;23.00;19.00;;;;;22.99;45.90;100512.42;110270;1251;20064;-39
2023/05/24 03:03:35;;;;;;;;;23.50;22.00;;;;;22.98;46.14;100510.88;110240;1250;20774;-39
2023/05/24 03:06:03;;;;;;;;;25.00;22.00;;;;;22.98;46.09;100507.42;110127;1266;21932;-40
2023/05/24 03:08:30;;;;;;;;;22.00;21.00;;;;;22.97;46.14;100509.94;110168;1265;19958;-39
2023/05/24 03:10:58;;;;;;;;;22.00;21.00;;;;;22.97;46.33;100509.17;110229;1265;19546;-39
2023/05/24 03:13:25;;;;;;;;;28.00;25.00;;;;;22.97;46.26;100509.23;110216;1265;21526;-39
2023/05/24 03:15:53;;;;;;;;;22.00;22.00;;;;;22.97;46.27;100512.84;110173;1250;19955;-38
2023/05/24 03:18:20;;;;;;;;;26.00;22.00;;;;;22.96;46.50;100515.11;110149;1265;20804;-39
2023/05/24 03:20:47;;;;;;;;;21.00;19.00;;;;;22.97;46.33;100513.94;110192;1265;20016;-38
2023/05/24 03:23:15;;;;;;;;;22.00;21.00;;;;;22.96;46.41;100517.55;110158;1265;19487;-39
2023/05/24 03:25:42;;;;;;;;;23.00;23.00;;;;;22.97;46.52;100520.20;110135;1251;21085;-39
2023/05/24 03:28:13;;;;;;;;;25.00;22.50;;;;;22.97;46.46;100520.48;110214;1250;23209;-39
2023/05/24 03:30:41;;;;;;;;;25.00;23.00;;;;;22.96;46.54;100522.80;110160;1257;20311;-39
2023/05/24 03:33:08;;;;;;;;;25.00;22.00;;;;;22.96;46.56;100520.66;110159;1260;19659;-39
2023/05/24 03:35:36;;;;;;;;;21.50;21.50;;;;;22.97;46.47;100525.70;110163;1261;21517;-39
2023/05/24 03:38:03;;;;;;;;;25.50;23.50;;;;;22.96;46.69;100535.62;110237;1265;23170;-39
2023/05/24 03:40:32;;;;;;;;;24.00;22.50;;;;;22.96;46.52;100541.42;110216;1265;20789;-38
2023/05/24 03:42:59;;;;;;;;;23.50;22.00;;;;;22.97;46.55;100542.81;110248;1265;20167;-38
2023/05/24 03:45:27;;;;;;;;;26.00;23.00;;;;;22.96;46.69;100538.86;110179;1265;19130;-41
2023/05/24 03:47:54;;;;;;;;;21.50;19.00;;;;;22.96;46.58;100541.39;110214;1265;19297;-39
2023/05/24 03:50:22;;;;;;;;;25.50;23.50;;;;;22.96;46.76;100541.85;110226;1265;23599;-39
2023/05/24 03:52:49;;;;;;;;;29.00;24.00;;;;;22.96;46.72;100549.30;110188;1251;19405;-40
2023/05/24 03:55:17;;;;;;;;;22.00;21.00;;;;;22.96;46.79;100550.77;110214;1265;22965;-38
2023/05/24 03:57:44;;;;;;;;;23.00;23.00;;;;;22.95;46.68;100552.81;110152;1265;20138;-39
2023/05/24 04:00:11;;;;;;;;;22.50;22.00;;;;;22.96;46.74;100553.33;110191;1257;19153;-39
2023/05/24 04:02:39;;;;;;;;;27.50;22.50;;;;;22.95;46.77;100554.66;110176;1251;23442;-39
2023/05/24 04:05:09;;;;;;;;;35.33;30.67;;;;;22.93;46.91;100555.91;110130;1265;22977;-39
2023/05/24 04:07:36;;;;;;;;;32.00;30.00;;;;;22.88;47.16;100549.84;110226;1265;22852;-39
2023/05/24 04:10:04;;;;;;;;;30.00;28.00;;;;;22.84;47.08;100549.83;110172;1251;20893;-38
2023/05/24 04:12:32;;;;;;;;;28.00;28.00;;;;;22.80;47.45;100551.79;110212;1257;24020;-39
2023/05/24 04:15:00;;;;;;;;;38.00;36.00;;;;;22.76;47.57;100553.22;110154;1265;19926;-39
2023/05/24 04:17:29;;;;;;;;;35.50;32.00;;;;;22.74;47.74;100558.91;110123;1260;22643;-38
2023/05/24 04:19:57;;;;;;;;;32.00;31.00;;;;;22.74;47.77;100563.91;110075;1251;23681;-39
2023/05/24 04:22:24;;;;;;;;;35.00;32.00;;;;;22.72;47.76;100562.34;110107;1265;19264;-39
2023/05/24 04:24:51;;;;;;;;;32.00;30.00;;;;;22.73;47.92;100560.25;110091;1265;20852;-39
2023/05/24 04:27:19;;;;;;;;;28.50;27.00;;;;;22.72;47.85;100566.58;110134;1251;21540;-39
2023/05/24 04:29:48;;;;;;;;;33.00;29.00;;;;;22.68;47.82;100566.80;110087;1251;20396;-39
2023/05/24 04:32:16;;;;;;;;;28.00;23.00;;;;;22.70;47.98;100578.65;110099;1265;20842;-39
2023/05/24 04:34:44;;;;;;;;;26.50;25.00;;;;;22.71;47.98;100576.48;110157;1265;23278;-39
2023/05/24 04:37:16;;;;;;;;;28.50;27.00;;;;;22.71;47.99;100579.00;110244;1257;24534;-39
2023/05/24 04:39:44;;;;;;;;;23.00;23.00;;;;;22.71;48.10;100581.37;110226;1265;22366;-39
2023/05/24 04:42:11;;;;;;;;;29.00;28.00;;;;;22.65;48.07;100578.20;110204;1265;20635;-38
2023/05/24 04:44:39;;;;;;;;;28.00;25.00;;;;;22.67;48.15;100584.20;110220;1266;19257;-39
2023/05/24 04:47:07;;;;;;;;;24.00;22.00;;;;;22.69;48.17;100588.37;110174;1251;23173;-39
2023/05/24 04:49:34;;;;;;;;;31.00;25.50;;;;;22.68;48.12;100590.34;110165;1265;23500;-38
2023/05/24 04:52:02;;;;;;;;;31.00;28.00;;;;;22.60;48.14;100589.04;110191;1251;20076;-39
2023/05/24 04:54:30;;;;;;;;;32.00;28.00;;;;;22.54;48.65;100599.88;110222;1249;20724;-38
2023/05/24 04:56:57;;;;;;;;;35.00;31.00;;;;;22.54;48.58;100604.39;110229;1265;20190;-42
2023/05/24 04:59:24;;;;;;;;;29.00;29.00;;;;;22.59;48.44;100606.67;110192;1265;22942;-38
2023/05/24 05:01:52;;;;;;;;;28.00;26.00;;;;;22.63;48.83;100608.73;110228;1265;19375;-39
2023/05/24 05:04:19;;;;;;;;;31.00;29.00;;;;;22.63;48.82;100613.27;110243;1265;21525;-40
2023/05/24 05:06:47;;;;;;;;;48.00;45.00;;;;;22.60;49.10;100619.02;110241;1265;23857;-39
2023/05/24 05:09:15;;;;;;;;;80.50;64.00;;;;;22.55;49.31;100617.38;110234;1265;21056;-39
2023/05/24 05:11:42;;;;;;;;;67.00;55.00;;;;;22.57;49.56;100618.58;110274;1265;22798;-39
2023/05/24 05:14:10;;;;;;;;;90.50;72.00;;;;;22.57;50.25;100620.88;110255;1251;18955;-39
2023/05/24 05:16:38;;;;;;;;;133.50;122.50;;;;;22.64;50.49;100623.17;110259;1265;20938;-39
2023/05/24 05:19:05;;;;;;;;;78.50;62.00;;;;;22.77;50.13;100628.77;110122;1265;22912;-39
2023/05/24 05:21:33;;;;;;;;;73.33;58.67;;;;;22.77;50.07;100631.59;110144;1251;20360;-39
2023/05/24 05:24:00;;;;;;;;;63.00;53.00;;;;;22.75;50.04;100636.23;110226;1265;20913;-38
2023/05/24 05:26:28;;;;;;;;;52.67;46.00;;;;;22.77;49.97;100642.01;110184;1265;20392;-39
2023/05/24 05:28:55;;;;;;;;;45.50;43.00;;;;;22.77;50.06;100645.63;110197;1265;20058;-39
2023/05/24 05:31:22;;;;;;;;;40.00;38.00;;;;;22.79;49.81;100646.11;110218;1257;19709;-39
2023/05/24 05:33:50;;;;;;;;;38.00;35.00;;;;;22.78;49.73;100645.14;110196;1251;21584;-39
2023/05/24 05:36:17;;;;;;;;;38.00;34.00;;;;;22.72;49.72;100644.85;110182;1265;19255;-39
2023/05/24 05:38:45;;;;;;;;;33.00;31.00;;;;;22.71;49.79;100644.59;110197;1265;21204;-39
2023/05/24 05:41:12;;;;;;;;;29.50;27.50;;;;;22.68;49.90;100647.33;110237;1265;22622;-38
2023/05/24 05:43:40;;;;;;;;;30.00;29.00;;;;;22.69;49.97;100646.63;110201;1265;19981;-39
2023/05/24 05:46:07;;;;;;;;;37.00;33.00;;;;;22.73;49.88;100654.23;110195;1265;19438;-39
2023/05/24 05:48:35;;;;;;;;;30.00;28.00;;;;;22.67;49.93;100656.69;110242;1265;20883;-39
2023/05/24 05:51:02;;;;;;;;;33.00;29.00;;;;;22.65;50.04;100658.08;110154;1266;19359;-41
2023/05/24 05:53:30;;;;;;;;;25.00;25.00;;;;;22.66;50.04;100657.67;110157;1265;23498;-39
2023/05/24 05:55:57;;;;;;;;;29.00;28.50;;;;;22.68;49.96;100668.39;110187;1250;20613;-39
2023/05/24 05:58:25;;;;;;;;;26.00;22.00;;;;;22.71;50.02;100671.73;110175;1260;19319;-38
2023/05/24 06:00:52;;;;;;;;;29.00;25.00;;;;;22.75;50.07;100672.80;110153;1251;20909;-39
2023/05/24 06:03:20;;;;;;;;;29.67;29.00;;;;;22.73;49.98;100675.50;110178;1265;21451;-39
2023/05/24 06:05:47;;;;;;;;;29.50;28.50;;;;;22.64;50.06;100676.91;110143;1265;19279;-38
2023/05/24 06:08:15;;;;;;;;;30.00;29.00;;;;;22.73;49.93;100680.80;110198;1265;21973;-38
2023/05/24 06:10:42;;;;;;;;;38.00;31.00;;;;;22.67;50.17;100683.13;110236;1265;20147;-39
2023/05/24 06:13:09;;;;;;;;;29.00;29.00;;;;;22.65;50.06;100685.13;110225;1260;23840;-39
2023/05/24 06:15:37;;;;;;;;;28.50;28.00;;;;;22.70;50.30;100686.83;110190;1265;20914;-39
2023/05/24 06:18:05;;;;;;;;;28.00;25.00;;;;;22.67;50.29;100685.82;110210;1251;21768;-39
2023/05/24 06:20:32;;;;;;;;;26.50;26.50;;;;;22.74;50.27;100688.27;110227;1265;19509;-39
2023/05/24 06:23:00;;;;;;;;;26.50;25.00;;;;;22.78;50.18;100689.79;110219;1265;22117;-39
2023/05/24 06:25:29;;;;;;;;;26.50;26.00;;;;;22.82;50.40;100688.16;110253;1250;21491;-38
2023/05/24 06:27:57;;;;;;;;;28.00;26.00;;;;;22.90;50.54;100691.80;110210;1251;22679;-38
2023/05/24 06:30:25;;;;;;;;;;;;;;;22.92;50.32;100693.48;110250;1251;21452;-38
2023/05/24 06:32:52;;;;;;;;;91.00;67.00;;;;;22.96;50.64;100695.06;110229;1251;21466;-38
2023/05/24 06:35:20;;;;;;;;;88.50;64.50;;;;;23.03;50.80;100699.19;110217;1265;18993;-38
2023/05/24 06:37:47;;;;;;;;;95.00;67.00;;;;;23.11;50.88;100702.81;110197;1257;19469;-40
2023/05/24 06:40:14;;;;;;;;;105.00;75.00;;;;;23.15;50.55;100707.36;110216;1250;23045;-38
2023/05/24 06:42:42;;;;;;;;;92.00;65.00;;;;;23.21;50.42;100712.48;110266;1265;19877;-39
2023/05/24 06:45:09;;;;;;;;;90.50;68.50;;;;;23.21;50.59;100713.36;110234;1265;19410;-40
2023/05/24 06:47:37;;;;;;;;;98.00;70.00;;;;;23.12;50.87;100719.95;110236;1251;21683;-39
2023/05/24 06:50:04;;;;;;;;;71.00;54.00;;;;;23.07;51.24;100726.11;110221;1265;19109;-40
2023/05/24 06:52:32;;;;;;;;;57.00;44.00;;;;;23.01;51.50;100731.13;110166;1265;19681;-40
2023/05/24 06:54:59;;;;;;;;;51.50;44.50;;;;;22.96;51.87;100735.64;110174;1265;22565;-38
2023/05/24 06:57:27;;;;;;;;;43.00;37.00;;;;;22.96;52.14;100740.27;110171;1265;23106;-40
2023/05/24 06:59:55;;;;;;;;;36.00;34.00;;;;;23.02;52.09;100744.02;110221;1265;19586;-38
2023/05/24 07:02:26;;;;;;;;;33.00;32.00;;;;;22.99;52.12;100744.73;110239;1265;23039;-39
2023/05/24 07:04:53;;;;;;;;;33.00;30.00;;;;;23.08;52.00;100746.23;110269;1251;19991;-39
2023/05/24 07:07:21;;;;;;;;;38.67;34.33;;;;;23.07;52.06;100751.80;110261;1265;21007;-39
2023/05/24 07:09:48;;;;;;;;;33.67;32.00;;;;;23.01;52.13;100746.70;110245;1251;21739;-39
2023/05/24 07:12:16;;;;;;;;;32.00;30.00;;;;;23.02;52.35;100750.95;110207;1265;20774;-40
2023/05/24 07:14:44;;;;;;;;;37.00;32.00;;;;;23.04;52.41;100757.61;110240;1257;23772;-39
2023/05/24 07:17:12;;;;;;;;;36.00;35.00;;;;;23.08;52.61;100759.34;110219;1265;20701;-40
2023/05/24 07:19:40;;;;;;;;;35.00;32.00;;;;;23.09;52.33;100764.83;110233;1260;19150;-39
2023/05/24 07:22:08;;;;;;;;;35.50;30.00;;;;;23.04;52.38;100770.16;110244;1265;22202;-39
2023/05/24 07:24:35;;;;;;;;;39.00;38.00;;;;;22.99;52.41;100773.02;110206;1265;22831;-39
2023/05/24 07:27:03;;;;;;;;;34.50;30.50;;;;;22.91;52.49;100774.77;110221;1265;19989;-40
2023/05/24 07:29:31;;;;;;;;;36.50;35.50;;;;;22.89;52.89;100780.09;110142;1250;22965;-40
2023/05/24 07:31:59;;;;;;;;;36.50;34.50;;;;;22.89;52.65;100775.27;110130;1250;21826;-40
2023/05/24 07:34:28;;;;;;;;;38.50;31.50;;;;;22.93;52.81;100781.91;110133;1250;22621;-39
2023/05/24 07:36:57;;;;;;;;;29.00;27.33;;;;;22.92;53.11;100781.85;110183;1265;21070;-40
2023/05/24 07:39:26;;;;;;;;;31.00;29.00;;;;;22.98;52.90;100787.05;110217;1265;23679;-40
2023/05/24 07:41:53;;;;;;;;;36.00;33.00;;;;;22.97;52.73;100786.92;110230;1250;21448;-40
2023/05/24 07:44:21;;;;;;;;;35.00;33.00;;;;;22.90;52.64;100791.26;110188;1249;21194;-39
2023/05/24 07:46:48;;;;;;;;;31.50;31.00;;;;;22.85;53.10;100794.98;110215;1265;20419;-40
2023/05/24 07:49:15;;;;;;;;;32.00;29.00;;;;;22.84;53.08;100799.21;110225;1249;19855;-39
2023/05/24 07:51:43;;;;;;;;;33.50;32.00;;;;;22.84;53.07;100804.14;110228;1265;20608;-40
2023/05/24 07:54:10;;;;;;;;;32.00;31.00;;;;;22.86;53.15;100806.60;110228;1249;20187;-40
2023/05/24 07:56:38;;;;;;;;;31.00;28.00;;;;;22.87;53.04;100806.50;110220;1265;20131;-46
2023/05/24 07:59:06;;;;;;;;;28.00;27.50;;;;;22.88;53.26;100807.50;110257;1265;19451;-40
2023/05/24 08:01:35;;;;;;;;;38.00;32.50;;;;;22.86;52.98;100814.42;110221;1265;23138;-41
2023/05/24 08:04:03;;;;;;;;;28.50;28.00;;;;;22.82;52.81;100815.83;110209;1261;20047;-40
2023/05/24 08:06:31;;;;;;;;;31.33;29.67;;;;;22.79;52.77;100823.73;110267;1251;20859;-40
2023/05/24 08:08:59;;;;;;;;;29.00;26.00;;;;;22.72;52.94;100821.66;110256;1265;20166;-42
2023/05/24 08:11:26;;;;;;;;;32.00;26.00;;;;;22.68;53.02;100826.71;110238;1265;19356;-40
2023/05/24 08:13:54;;;;;;;;;38.00;34.33;;;;;22.76;52.79;100829.36;110215;1265;20802;-41
2023/05/24 08:16:21;;;;;;;;;30.00;29.00;;;;;22.74;52.73;100832.20;110175;1265;22865;-40
2023/05/24 08:18:49;;;;;;;;;31.00;28.00;;;;;22.68;52.83;100839.83;110142;1265;19256;-40
2023/05/24 08:21:16;;;;;;;;;36.00;29.00;;;;;22.62;52.73;100842.39;110004;1266;21097;-40
2023/05/24 08:23:43;;;;;;;;;26.00;24.50;;;;;22.54;52.71;100836.39;109997;1250;20339;-41
2023/05/24 08:26:11;;;;;;;;;26.00;24.00;;;;;22.49;52.84;100836.01;109984;1266;23514;-39
2023/05/24 08:28:38;;;;;;;;;27.00;26.50;;;;;22.51;52.85;100837.77;109993;1251;21471;-38
2023/05/24 08:31:06;;;;;;;;;29.50;26.50;;;;;22.45;52.88;100842.50;109978;1266;20306;-39
2023/05/24 08:33:33;;;;;;;;;28.00;24.50;;;;;22.37;53.02;100845.23;110006;1251;23077;-40
2023/05/24 08:36:01;;;;;;;;;25.00;24.00;;;;;22.33;53.06;100845.67;110021;1250;20937;-39
2023/05/24 08:38:28;;;;;;;;;25.50;25.00;;;;;22.32;53.15;100848.15;110007;1250;21684;-38
2023/05/24 08:40:56;;;;;;;;;30.00;30.00;;;;;22.32;53.04;100851.33;110047;1251;20102;-39
2023/05/24 08:43:23;;;;;;;;;29.50;27.50;;;;;22.32;53.17;100850.40;110030;1266;20608;-42
2023/05/24 08:45:51;;;;;;;;;25.00;22.00;;;;;22.32;53.23;100855.23;110030;1251;22793;-39
2023/05/24 08:48:18;;;;;;;;;26.00;25.00;;;;;22.36;53.31;100851.40;109993;1266;20149;-39
2023/05/24 08:50:46;;;;;;;;;30.50;27.00;;;;;22.34;53.39;100859.47;110030;1266;21277;-40
2023/05/24 08:53:13;;;;;;;;;30.00;25.00;;;;;22.31;53.24;100859.11;110021;1251;21899;-40
2023/05/24 08:55:42;;;;;;;;;25.00;24.00;;;;;22.23;53.59;100866.89;109999;1266;20192;-40
2023/05/24 08:58:09;;;;;;;;;28.00;26.00;;;;;22.26;53.45;100871.21;109978;1266;20829;-40
2023/05/24 09:00:37;;;;;;;;;31.00;28.00;;;;;22.27;53.60;100872.50;109995;1260;21811;-40
2023/05/24 09:03:04;;;;;;;;;24.00;22.00;;;;;22.28;53.59;100872.02;109976;1251;19254;-39
2023/05/24 09:05:32;;;;;;;;;24.00;24.00;;;;;22.37;53.41;100875.95;110037;1266;19846;-39
2023/05/24 09:07:59;;;;;;;;;26.00;23.00;;;;;22.34;53.45;100881.82;110011;1266;21469;-39
2023/05/24 09:10:27;;;;;;;;;30.00;28.00;;;;;22.24;53.73;100888.87;110019;1251;22045;-38
2023/05/24 09:12:54;;;;;;;;;34.00;32.00;;;;;22.21;53.73;100893.56;110000;1266;20881;-39
2023/05/24 09:15:22;;;;;;;;;30.67;29.67;;;;;22.17;54.10;100899.34;110028;1251;24131;-37
2023/05/24 09:17:50;;;;;;;;;29.00;27.00;;;;;22.01;54.46;100899.55;110237;1265;20098;-39
2023/05/24 09:20:17;;;;;;;;;27.00;26.00;;;;;21.94;54.55;100899.84;110195;1257;22230;-39
2023/05/24 09:22:45;;;;;;;;;40.00;34.00;;;;;22.03;54.61;100906.98;110184;1251;22026;-39
2023/05/24 09:25:12;;;;;;;;;34.50;33.00;;;;;21.94;54.83;100909.86;110022;1258;19459;-39
2023/05/24 09:27:40;;;;;;;;;36.00;30.00;;;;;21.92;54.91;100910.27;110004;1250;19707;-39
2023/05/24 09:30:08;;;;;;;;;31.67;27.67;;;;;21.97;54.88;100911.52;110033;1266;24036;-41
2023/05/24 09:32:36;;;;;;;;;34.00;31.00;;;;;22.02;54.71;100912.52;110040;1267;20152;-39
2023/05/24 09:35:04;;;;;;;;;29.00;27.00;;;;;21.90;54.99;100914.41;109996;1266;22130;-39
2023/05/24 09:37:31;;;;;;;;;36.50;31.50;;;;;21.87;55.23;100924.34;110014;1251;24416;-39
2023/05/24 09:39:59;;;;;;;;;31.00;28.00;;;;;21.91;55.18;100925.64;110031;1254;20042;-39
2023/05/24 09:42:27;;;;;;;;;29.00;27.00;;;;;21.93;55.15;100930.38;110017;1266;23443;-39
2023/05/24 09:44:54;;;;;;;;;31.00;28.00;;;;;21.90;55.24;100930.19;109959;1266;23035;-39
2023/05/24 09:47:22;;;;;;;;;31.00;29.00;;;;;21.74;55.80;100930.55;110106;1265;19235;-39
2023/05/24 09:49:49;;;;;;;;;27.00;27.00;;;;;21.87;55.40;100929.97;110129;1251;21126;-40
2023/05/24 09:52:17;;;;;;;;;34.00;31.50;;;;;21.89;55.27;100927.50;110235;1249;23457;-39
2023/05/24 09:54:44;;;;;;;;;29.00;29.00;;;;;21.87;55.40;100932.70;110238;1266;20058;-39
2023/05/24 09:57:12;;;;;;;;;33.00;27.00;;;;;21.89;55.01;100932.62;110232;1251;22959;-39
2023/05/24 09:59:39;;;;;;;;;30.00;29.00;;;;;21.99;54.90;100933.48;110219;1265;20125;-39
2023/05/24 10:02:09;;;;;;;;;30.00;30.00;;;;;21.95;55.18;100936.33;110243;1265;20008;-39
2023/05/24 10:04:37;;;;;;;;;30.00;29.00;;;;;21.84;55.30;100937.73;110272;1265;20923;-39
2023/05/24 10:07:04;;;;;;;;;31.00;30.00;;;;;21.95;55.31;100936.71;110068;1265;23211;-39
2023/05/24 10:09:33;;;;;;;;;31.00;28.00;;;;;21.92;55.27;100936.31;110238;1265;24621;-39
2023/05/24 10:12:01;;;;;;;;;34.00;33.00;;;;;21.92;55.19;100937.17;110239;1265;19674;-39
2023/05/24 10:14:28;;;;;;;;;31.00;28.00;;;;;21.93;55.27;100943.61;110223;1265;23094;-39
2023/05/24 10:16:57;;;;;;;;;34.00;32.00;;;;;21.96;55.16;100939.64;110170;1266;19345;-39
2023/05/24 10:19:25;;;;;;;;;31.50;27.50;;;;;22.02;55.20;100937.96;110248;1257;21068;-39
2023/05/24 10:21:52;;;;;;;;;34.00;30.00;;;;;22.07;55.22;100934.36;110214;1265;20144;-39
2023/05/24 10:24:19;;;;;;;;;29.00;28.00;;;;;22.06;55.28;100930.98;110199;1257;19287;-39
2023/05/24 10:26:48;;;;;;;;;33.00;28.00;;;;;22.06;55.39;100927.77;110274;1265;19650;-39
2023/05/24 10:29:16;;;;;;;;;21.00;21.00;;;;;22.10;55.54;100926.13;110229;1251;22974;-39
2023/05/24 10:31:43;;;;;;;;;26.50;24.50;;;;;22.19;55.93;100929.52;110239;1266;24234;-40
2023/05/24 10:34:11;;;;;;;;;28.00;27.00;;;;;22.29;55.94;100929.27;110269;1265;19570;-40
2023/05/24 10:36:40;;;;;;;;;30.50;23.50;;;;;22.30;56.33;100925.82;110237;1251;21826;-39
2023/05/24 10:39:07;;;;;;;;;30.00;26.00;;;;;22.39;56.43;100925.09;110226;1251;20321;-38
2023/05/24 10:41:35;;;;;;;;;52.00;43.50;;;;;22.45;56.15;100922.38;110221;1260;19675;-39
2023/05/24 10:44:02;;;;;;;;;56.00;47.00;;;;;22.45;55.68;100926.00;110239;1265;23446;-39
2023/05/24 10:46:31;;;;;;;;;75.00;57.00;;;;;22.46;55.71;100928.42;110211;1265;21323;-40
2023/05/24 10:48:59;;;;;;;;;73.00;56.00;;;;;22.48;55.68;100928.75;110216;1251;22957;-42
2023/05/24 10:51:26;;;;;;;;;67.00;51.00;;;;;22.48;55.41;100932.74;110213;1250;21973;-42
2023/05/24 10:53:54;;;;;;;;;41.00;38.00;;;;;22.46;55.27;100934.13;110250;1266;19266;-40
2023/05/24 10:56:22;;;;;;;;;32.67;31.00;;;;;22.43;54.98;100933.58;110207;1251;24131;-39
2023/05/24 10:58:50;;;;;;;;;33.00;30.50;;;;;22.38;54.79;100936.89;110248;1265;22805;-39
2023/05/24 11:01:17;;;;;;;;;32.00;30.00;;;;;22.45;54.75;100938.39;110194;1265;23464;-39
2023/05/24 11:03:45;;;;;;;;;32.00;30.00;;;;;22.50;54.59;100933.81;110224;1265;22075;-39